地図

経路データ

SID SEASON NUMBER BASIN SUBBASIN NAME ISO_TIME NATURE LAT LON WMO_WIND WMO_PRES WMO_AGENCY TRACK_TYPE DIST2LAND LANDFALL IFLAG USA_AGENCY USA_ATCF_ID USA_LAT USA_LON USA_RECORD USA_STATUS USA_WIND USA_PRES USA_SSHS USA_R34_NE USA_R34_SE USA_R34_SW USA_R34_NW USA_R50_NE USA_R50_SE USA_R50_SW USA_R50_NW USA_R64_NE USA_R64_SE USA_R64_SW USA_R64_NW USA_POCI USA_ROCI USA_RMW USA_EYE TOKYO_LAT TOKYO_LON TOKYO_GRADE TOKYO_WIND TOKYO_PRES TOKYO_R50_DIR TOKYO_R50_LONG TOKYO_R50_SHORT TOKYO_R30_DIR TOKYO_R30_LONG TOKYO_R30_SHORT TOKYO_LAND CMA_LAT CMA_LON CMA_CAT CMA_WIND CMA_PRES HKO_LAT HKO_LON HKO_CAT HKO_WIND HKO_PRES NEWDELHI_LAT NEWDELHI_LON NEWDELHI_GRADE NEWDELHI_WIND NEWDELHI_PRES NEWDELHI_CI NEWDELHI_DP NEWDELHI_POCI REUNION_LAT REUNION_LON REUNION_TYPE REUNION_WIND REUNION_PRES REUNION_TNUM REUNION_CI REUNION_RMW REUNION_R34_NE REUNION_R34_SE REUNION_R34_SW REUNION_R34_NW REUNION_R50_NE REUNION_R50_SE REUNION_R50_SW REUNION_R50_NW REUNION_R64_NE REUNION_R64_SE REUNION_R64_SW REUNION_R64_NW BOM_LAT BOM_LON BOM_TYPE BOM_WIND BOM_PRES BOM_TNUM BOM_CI BOM_RMW BOM_R34_NE BOM_R34_SE BOM_R34_SW BOM_R34_NW BOM_R50_NE BOM_R50_SE BOM_R50_SW BOM_R50_NW BOM_R64_NE BOM_R64_SE BOM_R64_SW BOM_R64_NW BOM_ROCI BOM_POCI BOM_EYE BOM_POS_METHOD BOM_PRES_METHOD NADI_LAT NADI_LON NADI_CAT NADI_WIND NADI_PRES WELLINGTON_LAT WELLINGTON_LON WELLINGTON_WIND WELLINGTON_PRES DS824_LAT DS824_LON DS824_STAGE DS824_WIND DS824_PRES TD9636_LAT TD9636_LON TD9636_STAGE TD9636_WIND TD9636_PRES TD9635_LAT TD9635_LON TD9635_WIND TD9635_PRES TD9635_ROCI NEUMANN_LAT NEUMANN_LON NEUMANN_CLASS NEUMANN_WIND NEUMANN_PRES MLC_LAT MLC_LON MLC_CLASS MLC_WIND MLC_PRES USA_GUST BOM_GUST BOM_GUST_PER REUNION_GUST REUNION_GUST_PER USA_SEAHGT USA_SEARAD_NE USA_SEARAD_SE USA_SEARAD_SW USA_SEARAD_NW STORM_SPEED STORM_DIR
1853228N14322 1853 4 NA NA NOT_NAMED 1853-08-15 12:00:00 TS 14.4000 -38.5000 main 1802 1741 _____________O -1 14.4000 -38.5000 TS 35 19 282
1853228N14322 1853 4 NA NA NOT_NAMED 1853-08-15 15:00:00 TS 14.5883 -39.4498 main 1741 1684 _____________P -1 14.5883 -39.4498 TS 35 19 282
1853228N14322 1853 4 NA NA NOT_NAMED 1853-08-15 18:00:00 TS 14.8000 -40.4000 main 1676 1623 _____________O -1 14.8000 -40.4000 TS 35 19 284
1853228N14322 1853 4 NA NA NOT_NAMED 1853-08-15 21:00:00 TS 15.0496 -41.3500 main 1616 1582 _____________P -1 15.0496 -41.3500 TS 37 19 285
1853228N14322 1853 4 NA NA NOT_NAMED 1853-08-16 00:00:00 TS 15.3000 -42.3000 main 1577 1536 _____________O -1 15.3000 -42.3000 TS 40 19 284
1853228N14322 1853 4 NA NA NOT_NAMED 1853-08-16 03:00:00 TS 15.4997 -43.2579 main 1529 1498 _____________P -1 15.4997 -43.2579 TS 40 19 282
1853228N14322 1853 4 NA NA NOT_NAMED 1853-08-16 06:00:00 TS 15.7000 -44.2000 main 1491 1451 _____________O -1 15.7000 -44.2000 TS 40 19 284
1853228N14322 1853 4 NA NA NOT_NAMED 1853-08-16 09:00:00 TS 15.9424 -45.1375 main 1451 1427 _____________P -1 15.9424 -45.1375 TS 42 18 286
1853228N14322 1853 4 NA NA NOT_NAMED 1853-08-16 12:00:00 TS 16.2000 -46.0000 main 1427 1409 _____________O -1 16.2000 -46.0000 TS 45 16 288
1853228N14322 1853 4 NA NA NOT_NAMED 1853-08-16 15:00:00 TS 16.4494 -46.7303 main 1409 1400 _____________P -1 16.4494 -46.7303 TS 45 14 290
1853228N14322 1853 4 NA NA NOT_NAMED 1853-08-16 18:00:00 TS 16.7000 -47.4000 main 1405 1396 _____________O -1 16.7000 -47.4000 TS 45 14 291
1853228N14322 1853 4 NA NA NOT_NAMED 1853-08-16 21:00:00 TS 16.9498 -48.1002 main 1396 1394 _____________P -1 16.9498 -48.1002 TS 47 14 290
1853228N14322 1853 4 NA NA NOT_NAMED 1853-08-17 00:00:00 TS 17.2000 -48.8000 main 1395 1385 _____________O -1 17.2000 -48.8000 TS 50 14 290
1853228N14322 1853 4 NA NA NOT_NAMED 1853-08-17 03:00:00 TS 17.4498 -49.5077 main 1385 1383 _____________P -1 17.4498 -49.5077 TS 55 14 291
1853228N14322 1853 4 NA NA NOT_NAMED 1853-08-17 06:00:00 TS 17.7000 -50.2000 main 1391 1362 _____________O -1 17.7000 -50.2000 TS 60 13 291
1853228N14322 1853 4 NA NA NOT_NAMED 1853-08-17 09:00:00 TS 17.9341 -50.8057 main 1362 1323 _____________P -1 17.9341 -50.8057 TS 60 13 292
1853228N14322 1853 4 NA NA NOT_NAMED 1853-08-17 12:00:00 TS 18.2000 -51.5000 main 1323 1271 _____________O -1 18.2000 -51.5000 TS 60 17 291
1853228N14322 1853 4 NA NA NOT_NAMED 1853-08-17 15:00:00 TS 18.5353 -52.4549 main 1264 1227 _____________P -1 18.5353 -52.4549 TS 65 20 290
1853228N14322 1853 4 NA NA NOT_NAMED 1853-08-17 18:00:00 TS 18.9000 -53.5000 main 1221 1182 _____________O -1 18.9000 -53.5000 HU 70 20 291
1853228N14322 1853 4 NA NA NOT_NAMED 1853-08-17 21:00:00 TS 19.2494 -54.4579 main 1171 1091 _____________P -1 19.2494 -54.4579 HU 75 19 291
1853228N14322 1853 4 NA NA NOT_NAMED 1853-08-18 00:00:00 TS 19.6000 -55.4000 main 1080 991 _____________O -1 19.6000 -55.4000 HU 80 19 291
1853228N14322 1853 4 NA NA NOT_NAMED 1853-08-18 03:00:00 TS 19.9495 -56.3504 main 980 906 _____________P -1 19.9495 -56.3504 HU 80 19 291
1853228N14322 1853 4 NA NA NOT_NAMED 1853-08-18 06:00:00 TS 20.3000 -57.3000 main 896 813 _____________O -1 20.3000 -57.3000 HU 80 20 290
1853228N14322 1853 4 NA NA NOT_NAMED 1853-08-18 09:00:00 TS 20.6127 -58.3031 main 803 730 _____________P -1 20.6127 -58.3031 HU 80 19 291
1853228N14322 1853 4 NA NA NOT_NAMED 1853-08-18 12:00:00 TS 21.0000 -59.2000 main 730 698 _____________O -1 21.0000 -59.2000 HU 80 17 303
1853228N14322 1853 4 NA NA NOT_NAMED 1853-08-18 15:00:00 TS 21.5691 -59.8529 main 694 686 _____________P -1 21.5691 -59.8529 HU 80 16 317
1853228N14322 1853 4 NA NA NOT_NAMED 1853-08-18 18:00:00 TS 22.2000 -60.4000 main 688 678 _____________O -1 22.2000 -60.4000 HU 80 16 318
1853228N14322 1853 4 NA NA NOT_NAMED 1853-08-18 21:00:00 TS 22.7573 -61.0006 main 686 679 _____________P -1 22.7573 -61.0006 HU 80 16 315
1853228N14322 1853 4 NA NA NOT_NAMED 1853-08-19 00:00:00 TS 23.3000 -61.6000 main 687 687 _____________O -1 23.3000 -61.6000 HU 80 16 315
1853228N14322 1853 4 NA NA NOT_NAMED 1853-08-19 03:00:00 TS 23.8498 -62.2005 main 699 699 _____________P -1 23.8498 -62.2005 HU 77 16 315
1853228N14322 1853 4 NA NA NOT_NAMED 1853-08-19 06:00:00 TS 24.4000 -62.8000 main 730 730 _____________O -1 24.4000 -62.8000 HU 75 16 314
1853228N14322 1853 4 NA NA NOT_NAMED 1853-08-19 09:00:00 TS 24.9201 -63.4305 main 761 758 _____________P -1 24.9201 -63.4305 HU 70 16 315
1853228N14322 1853 4 NA NA NOT_NAMED 1853-08-19 12:00:00 TS 25.5000 -64.0000 main 810 810 _____________O -1 25.5000 -64.0000 HU 65 16 325
1853228N14322 1853 4 NA NA NOT_NAMED 1853-08-19 15:00:00 TS 26.2272 -64.4379 main 880 880 _____________P -1 26.2272 -64.4379 HU 60 17 334
1853228N14322 1853 4 NA NA NOT_NAMED 1853-08-19 18:00:00 TS 27.0000 -64.8000 main 964 964 _____________O -1 27.0000 -64.8000 TS 55 16 336
1853228N14322 1853 4 NA NA NOT_NAMED 1853-08-19 21:00:00 TS 27.7075 -65.1876 main 1027 1027 _____________P -1 27.7075 -65.1876 TS 55 15 336
1853228N14322 1853 4 NA NA NOT_NAMED 1853-08-20 00:00:00 TS 28.4000 -65.5000 main 1084 1084 _____________O -1 28.4000 -65.5000 TS 55 15 342
1853228N14322 1853 4 NA NA NOT_NAMED 1853-08-20 03:00:00 TS 29.0924 -65.7028 main 1147 1124 _____________P -1 29.0924 -65.7028 TS 55 14 349
1853228N14322 1853 4 NA NA NOT_NAMED 1853-08-20 06:00:00 TS 29.8000 -65.8000 main 1124 1069 _____________O -1 29.8000 -65.8000 TS 55 15 355
1853228N14322 1853 4 NA NA NOT_NAMED 1853-08-20 09:00:00 TS 30.5798 -65.8672 main 1062 1027 _____________P -1 30.5798 -65.8672 TS 55 15 0
1853228N14322 1853 4 NA NA NOT_NAMED 1853-08-20 12:00:00 TS 31.3000 -65.8000 main 1027 1007 _____________O -1 31.3000 -65.8000 TS 55 13 8
1853228N14322 1853 4 NA NA NOT_NAMED 1853-08-20 15:00:00 TS 31.8359 -65.6633 main 1007 1004 _____________P -1 31.8359 -65.6633 TS 55 11 27
1853228N14322 1853 4 NA NA NOT_NAMED 1853-08-20 18:00:00 TS 32.3000 -65.2000 main 1023 1023 _____________O -1 32.3000 -65.2000 TS 55 16 53
1853228N14322 1853 4 NA NA NOT_NAMED 1853-08-20 21:00:00 TS 32.8031 -64.1470 main 1096 1096 _____________P -1 32.8031 -64.1470 TS 50 21 62
1853228N14322 1853 4 NA NA NOT_NAMED 1853-08-21 00:00:00 TS 33.3000 -63.0000 main 1119 1102 _____________O -1 33.3000 -63.0000 TS 45 18 57
1853228N14322 1853 4 NA NA NOT_NAMED 1853-08-21 03:00:00 TS 33.7982 -62.3305 main 1107 1067 _____________P -1 33.7982 -62.3305 TS 45 14 45
1853228N14322 1853 4 NA NA NOT_NAMED 1853-08-21 06:00:00 TS 34.3000 -61.8000 main 1067 1037 _____________O -1 34.3000 -61.8000 TS 45 14 44
1853228N14322 1853 4 NA NA NOT_NAMED 1853-08-21 09:00:00 TS 34.7618 -61.1851 main 1030 1000 _____________P -1 34.7618 -61.1851 TS 45 15 47
1853228N14322 1853 4 NA NA NOT_NAMED 1853-08-21 12:00:00 TS 35.3000 -60.5000 main 1000 961 _____________O -1 35.3000 -60.5000 TS 45 18 45
1853228N14322 1853 4 NA NA NOT_NAMED 1853-08-21 15:00:00 TS 36.0203 -59.6658 main 961 926 _____________P -1 36.0203 -59.6658 TS 42 20 43
1853228N14322 1853 4 NA NA NOT_NAMED 1853-08-21 18:00:00 TS 36.8000 -58.8000 main 926 890 _____________O -1 36.8000 -58.8000 TS 40 20 41
1853228N14322 1853 4 NA NA NOT_NAMED 1853-08-21 21:00:00 TS 37.5066 -58.0403 main 894 839 _____________P -1 37.5066 -58.0403 TS 37 18 40
1853228N14322 1853 4 NA NA NOT_NAMED 1853-08-22 00:00:00 ET 38.2000 -57.3000 main 839 792 _____________O -1 38.2000 -57.3000 EX 35 18 41
1853228N14322 1853 4 NA NA NOT_NAMED 1853-08-22 03:00:00 ET 38.8995 -56.5134 main 796 763 _____________P -1 38.8995 -56.5134 EX 32 19 42
1853228N14322 1853 4 NA NA NOT_NAMED 1853-08-22 06:00:00 ET 39.6000 -55.7000 main 763 708 _____________O -1 39.6000 -55.7000 EX 30 19 42
1853228N14322 1853 4 NA NA NOT_NAMED 1853-08-22 09:00:00 ET 40.3013 -54.8612 main 708 623 _____________P -1 40.3013 -54.8612 EX 30 19 43
1853228N14322 1853 4 NA NA NOT_NAMED 1853-08-22 12:00:00 ET 41.0000 -54.0000 main 623 _____________O -1 41.0000 -54.0000 EX 30 19 43

IBTrACS Databaseについて

本データベースは、米国NOAAが公開する1842年以降の世界の熱帯低気圧のベストトラックデータアーカイブInternational Best Track Archive for Climate Stewardship (IBTrACS)を、ウェブで閲覧しやすい形式に変換したものです。

最終更新日:2021-10-19